sensor_id;sensor_type;location;lat;lon;timestamp;P1;durP1;ratioP1;P2;durP2;ratioP2
76069;SDS011;64768;51.738;5.852;2023-02-04T00:00:52;3.85;;;1.33;;
76069;SDS011;64768;51.738;5.852;2023-02-04T00:03:24;1.85;;;0.55;;
76069;SDS011;64768;51.738;5.852;2023-02-04T00:06:01;11.38;;;1.55;;
76069;SDS011;64768;51.738;5.852;2023-02-04T00:08:30;1.52;;;0.70;;
76069;SDS011;64768;51.738;5.852;2023-02-04T00:10:59;3.75;;;1.02;;
76069;SDS011;64768;51.738;5.852;2023-02-04T00:13:31;8.13;;;1.73;;
76069;SDS011;64768;51.738;5.852;2023-02-04T00:16:02;5.38;;;1.90;;
76069;SDS011;64768;51.738;5.852;2023-02-04T00:18:32;6.57;;;1.20;;
76069;SDS011;64768;51.738;5.852;2023-02-04T00:21:01;9.52;;;1.98;;
76069;SDS011;64768;51.738;5.852;2023-02-04T00:23:30;4.97;;;1.67;;
76069;SDS011;64768;51.738;5.852;2023-02-04T00:25:59;7.35;;;1.48;;
76069;SDS011;64768;51.738;5.852;2023-02-04T00:28:28;4.90;;;1.50;;
76069;SDS011;64768;51.738;5.852;2023-02-04T00:31:00;2.70;;;0.60;;
76069;SDS011;64768;51.738;5.852;2023-02-04T00:33:29;4.75;;;1.05;;
76069;SDS011;64768;51.738;5.852;2023-02-04T00:35:57;9.65;;;1.60;;
76069;SDS011;64768;51.738;5.852;2023-02-04T00:38:26;12.90;;;2.35;;
76069;SDS011;64768;51.738;5.852;2023-02-04T00:40:56;1.75;;;0.90;;
76069;SDS011;64768;51.738;5.852;2023-02-04T00:43:25;1.83;;;0.52;;
76069;SDS011;64768;51.738;5.852;2023-02-04T00:45:56;4.18;;;1.40;;
76069;SDS011;64768;51.738;5.852;2023-02-04T00:48:28;4.05;;;1.02;;
76069;SDS011;64768;51.738;5.852;2023-02-04T00:51:00;6.53;;;1.48;;
76069;SDS011;64768;51.738;5.852;2023-02-04T00:53:29;8.15;;;1.42;;
76069;SDS011;64768;51.738;5.852;2023-02-04T00:55:58;6.25;;;1.15;;
76069;SDS011;64768;51.738;5.852;2023-02-04T00:58:27;4.70;;;1.35;;
76069;SDS011;64768;51.738;5.852;2023-02-04T01:00:59;10.48;;;2.90;;
76069;SDS011;64768;51.738;5.852;2023-02-04T01:03:30;2.83;;;1.15;;
76069;SDS011;64768;51.738;5.852;2023-02-04T01:05:59;9.88;;;2.05;;
76069;SDS011;64768;51.738;5.852;2023-02-04T01:08:28;9.95;;;1.77;;
76069;SDS011;64768;51.738;5.852;2023-02-04T01:10:57;4.07;;;0.88;;
76069;SDS011;64768;51.738;5.852;2023-02-04T01:13:28;9.50;;;1.95;;
76069;SDS011;64768;51.738;5.852;2023-02-04T01:16:00;1.90;;;1.00;;
76069;SDS011;64768;51.738;5.852;2023-02-04T01:18:29;5.38;;;1.45;;
76069;SDS011;64768;51.738;5.852;2023-02-04T01:20:59;0.60;;;0.52;;
76069;SDS011;64768;51.738;5.852;2023-02-04T01:23:28;4.28;;;0.88;;
76069;SDS011;64768;51.738;5.852;2023-02-04T01:25:57;10.00;;;3.47;;
76069;SDS011;64768;51.738;5.852;2023-02-04T01:28:29;10.45;;;2.08;;
76069;SDS011;64768;51.738;5.852;2023-02-04T01:31:04;4.93;;;1.20;;
76069;SDS011;64768;51.738;5.852;2023-02-04T01:33:33;2.60;;;1.15;;
76069;SDS011;64768;51.738;5.852;2023-02-04T01:36:02;6.03;;;1.08;;
76069;SDS011;64768;51.738;5.852;2023-02-04T01:38:32;6.47;;;1.02;;
76069;SDS011;64768;51.738;5.852;2023-02-04T01:41:07;3.78;;;0.90;;
76069;SDS011;64768;51.738;5.852;2023-02-04T01:43:36;1.65;;;0.65;;
76069;SDS011;64768;51.738;5.852;2023-02-04T01:46:08;5.88;;;1.65;;
76069;SDS011;64768;51.738;5.852;2023-02-04T01:48:40;8.95;;;1.65;;
76069;SDS011;64768;51.738;5.852;2023-02-04T01:51:10;9.57;;;1.38;;
76069;SDS011;64768;51.738;5.852;2023-02-04T01:53:43;14.48;;;2.13;;
76069;SDS011;64768;51.738;5.852;2023-02-04T01:56:14;3.22;;;0.95;;
76069;SDS011;64768;51.738;5.852;2023-02-04T01:58:45;2.55;;;0.93;;
76069;SDS011;64768;51.738;5.852;2023-02-04T02:04:07;6.25;;;1.27;;
76069;SDS011;64768;51.738;5.852;2023-02-04T02:06:38;2.80;;;0.63;;
76069;SDS011;64768;51.738;5.852;2023-02-04T02:09:10;7.15;;;1.80;;
76069;SDS011;64768;51.738;5.852;2023-02-04T02:11:41;5.30;;;1.13;;
76069;SDS011;64768;51.738;5.852;2023-02-04T02:14:10;5.22;;;1.33;;
76069;SDS011;64768;51.738;5.852;2023-02-04T02:16:43;2.30;;;1.13;;
76069;SDS011;64768;51.738;5.852;2023-02-04T02:19:14;5.88;;;1.15;;
76069;SDS011;64768;51.738;5.852;2023-02-04T02:21:49;6.97;;;1.27;;
76069;SDS011;64768;51.738;5.852;2023-02-04T02:24:31;9.05;;;1.95;;
76069;SDS011;64768;51.738;5.852;2023-02-04T02:27:02;8.27;;;1.38;;
76069;SDS011;64768;51.738;5.852;2023-02-04T02:29:34;7.13;;;2.08;;
76069;SDS011;64768;51.738;5.852;2023-02-04T02:32:11;3.33;;;0.73;;
76069;SDS011;64768;51.738;5.852;2023-02-04T02:34:42;4.45;;;1.30;;
76069;SDS011;64768;51.738;5.852;2023-02-04T02:37:12;6.95;;;2.03;;
76069;SDS011;64768;51.738;5.852;2023-02-04T02:39:45;0.13;;;0.13;;
76069;SDS011;64768;51.738;5.852;2023-02-04T02:42:15;6.55;;;1.25;;
76069;SDS011;64768;51.738;5.852;2023-02-04T02:44:46;9.95;;;0.88;;
76069;SDS011;64768;51.738;5.852;2023-02-04T02:47:19;11.10;;;3.00;;
76069;SDS011;64768;51.738;5.852;2023-02-04T02:49:50;5.90;;;0.93;;
76069;SDS011;64768;51.738;5.852;2023-02-04T02:52:20;10.07;;;2.00;;
76069;SDS011;64768;51.738;5.852;2023-02-04T02:54:53;0.82;;;0.47;;
76069;SDS011;64768;51.738;5.852;2023-02-04T02:57:22;3.42;;;1.05;;
76069;SDS011;64768;51.738;5.852;2023-02-04T02:59:51;6.47;;;1.75;;
76069;SDS011;64768;51.738;5.852;2023-02-04T03:02:22;6.20;;;1.73;;
76069;SDS011;64768;51.738;5.852;2023-02-04T03:04:53;5.82;;;1.25;;
76069;SDS011;64768;51.738;5.852;2023-02-04T03:07:25;6.60;;;1.73;;
76069;SDS011;64768;51.738;5.852;2023-02-04T03:09:58;14.32;;;2.35;;
76069;SDS011;64768;51.738;5.852;2023-02-04T03:12:27;12.40;;;2.30;;
76069;SDS011;64768;51.738;5.852;2023-02-04T03:14:57;11.23;;;2.05;;
76069;SDS011;64768;51.738;5.852;2023-02-04T03:17:28;16.65;;;2.70;;
76069;SDS011;64768;51.738;5.852;2023-02-04T03:19:58;10.73;;;2.30;;
76069;SDS011;64768;51.738;5.852;2023-02-04T03:25:00;6.03;;;1.88;;
76069;SDS011;64768;51.738;5.852;2023-02-04T03:27:30;11.95;;;3.20;;
76069;SDS011;64768;51.738;5.852;2023-02-04T03:30:02;17.20;;;3.03;;
76069;SDS011;64768;51.738;5.852;2023-02-04T03:32:35;8.88;;;2.03;;
76069;SDS011;64768;51.738;5.852;2023-02-04T03:35:05;14.73;;;3.13;;
76069;SDS011;64768;51.738;5.852;2023-02-04T03:40:07;9.38;;;2.30;;
76069;SDS011;64768;51.738;5.852;2023-02-04T03:42:37;13.25;;;3.45;;
76069;SDS011;64768;51.738;5.852;2023-02-04T03:47:41;13.02;;;2.15;;
76069;SDS011;64768;51.738;5.852;2023-02-04T03:50:10;17.60;;;2.80;;
76069;SDS011;64768;51.738;5.852;2023-02-04T03:52:40;18.30;;;3.28;;
76069;SDS011;64768;51.738;5.852;2023-02-04T03:55:13;18.30;;;2.80;;
76069;SDS011;64768;51.738;5.852;2023-02-04T03:57:42;13.90;;;3.00;;
76069;SDS011;64768;51.738;5.852;2023-02-04T04:00:18;15.65;;;3.00;;
76069;SDS011;64768;51.738;5.852;2023-02-04T04:02:50;22.30;;;3.53;;
76069;SDS011;64768;51.738;5.852;2023-02-04T04:05:19;20.20;;;3.08;;
76069;SDS011;64768;51.738;5.852;2023-02-04T04:07:50;17.13;;;3.10;;
76069;SDS011;64768;51.738;5.852;2023-02-04T04:10:23;20.05;;;3.50;;
76069;SDS011;64768;51.738;5.852;2023-02-04T04:12:56;13.38;;;3.25;;
76069;SDS011;64768;51.738;5.852;2023-02-04T04:15:35;21.75;;;3.75;;
76069;SDS011;64768;51.738;5.852;2023-02-04T04:18:06;22.77;;;3.90;;
76069;SDS011;64768;51.738;5.852;2023-02-04T04:20:42;16.15;;;3.33;;
76069;SDS011;64768;51.738;5.852;2023-02-04T04:23:11;11.48;;;3.03;;
76069;SDS011;64768;51.738;5.852;2023-02-04T04:25:43;19.13;;;3.65;;
76069;SDS011;64768;51.738;5.852;2023-02-04T04:28:14;19.80;;;3.70;;
76069;SDS011;64768;51.738;5.852;2023-02-04T04:30:43;13.43;;;2.55;;
76069;SDS011;64768;51.738;5.852;2023-02-04T04:33:13;18.33;;;4.07;;
76069;SDS011;64768;51.738;5.852;2023-02-04T04:35:43;19.98;;;4.28;;
76069;SDS011;64768;51.738;5.852;2023-02-04T04:38:12;17.67;;;4.00;;
76069;SDS011;64768;51.738;5.852;2023-02-04T04:40:46;19.25;;;3.72;;
76069;SDS011;64768;51.738;5.852;2023-02-04T04:43:24;13.38;;;3.00;;
76069;SDS011;64768;51.738;5.852;2023-02-04T04:45:53;16.90;;;3.33;;
76069;SDS011;64768;51.738;5.852;2023-02-04T04:48:22;15.73;;;3.25;;
76069;SDS011;64768;51.738;5.852;2023-02-04T04:50:54;19.90;;;3.75;;
76069;SDS011;64768;51.738;5.852;2023-02-04T04:53:23;16.38;;;3.83;;
76069;SDS011;64768;51.738;5.852;2023-02-04T04:58:25;9.00;;;2.47;;
76069;SDS011;64768;51.738;5.852;2023-02-04T05:00:55;12.45;;;2.53;;
76069;SDS011;64768;51.738;5.852;2023-02-04T05:03:25;16.95;;;3.13;;
76069;SDS011;64768;51.738;5.852;2023-02-04T05:05:54;16.05;;;3.00;;
76069;SDS011;64768;51.738;5.852;2023-02-04T05:08:24;12.32;;;3.25;;
76069;SDS011;64768;51.738;5.852;2023-02-04T05:10:58;14.70;;;2.90;;
76069;SDS011;64768;51.738;5.852;2023-02-04T05:13:27;18.85;;;4.13;;
76069;SDS011;64768;51.738;5.852;2023-02-04T05:15:56;16.25;;;3.65;;
76069;SDS011;64768;51.738;5.852;2023-02-04T05:18:26;22.15;;;3.53;;
76069;SDS011;64768;51.738;5.852;2023-02-04T05:20:55;14.82;;;2.83;;
76069;SDS011;64768;51.738;5.852;2023-02-04T05:23:28;17.00;;;3.40;;
76069;SDS011;64768;51.738;5.852;2023-02-04T05:26:05;14.70;;;3.92;;
76069;SDS011;64768;51.738;5.852;2023-02-04T05:28:34;17.75;;;3.58;;
76069;SDS011;64768;51.738;5.852;2023-02-04T05:31:04;16.98;;;3.45;;
76069;SDS011;64768;51.738;5.852;2023-02-04T05:33:35;11.80;;;3.22;;
76069;SDS011;64768;51.738;5.852;2023-02-04T05:36:05;17.75;;;3.45;;
76069;SDS011;64768;51.738;5.852;2023-02-04T05:38:35;15.65;;;3.20;;
76069;SDS011;64768;51.738;5.852;2023-02-04T05:41:11;15.40;;;3.05;;
76069;SDS011;64768;51.738;5.852;2023-02-04T05:43:40;10.55;;;3.35;;
76069;SDS011;64768;51.738;5.852;2023-02-04T05:46:10;19.90;;;3.17;;
76069;SDS011;64768;51.738;5.852;2023-02-04T05:48:42;11.13;;;2.83;;
76069;SDS011;64768;51.738;5.852;2023-02-04T05:51:13;15.40;;;3.75;;
76069;SDS011;64768;51.738;5.852;2023-02-04T05:53:42;16.27;;;3.72;;
76069;SDS011;64768;51.738;5.852;2023-02-04T05:56:16;17.85;;;4.78;;
76069;SDS011;64768;51.738;5.852;2023-02-04T05:58:46;13.13;;;4.07;;
76069;SDS011;64768;51.738;5.852;2023-02-04T06:01:18;21.30;;;4.97;;
76069;SDS011;64768;51.738;5.852;2023-02-04T06:03:49;18.70;;;4.43;;
76069;SDS011;64768;51.738;5.852;2023-02-04T06:06:24;14.63;;;4.53;;
76069;SDS011;64768;51.738;5.852;2023-02-04T06:08:58;21.20;;;4.68;;
76069;SDS011;64768;51.738;5.852;2023-02-04T06:11:32;17.73;;;5.47;;
76069;SDS011;64768;51.738;5.852;2023-02-04T06:14:22;24.15;;;5.38;;
76069;SDS011;64768;51.738;5.852;2023-02-04T06:16:51;24.42;;;5.10;;
76069;SDS011;64768;51.738;5.852;2023-02-04T06:19:21;25.75;;;5.45;;
76069;SDS011;64768;51.738;5.852;2023-02-04T06:21:51;19.70;;;5.15;;
76069;SDS011;64768;51.738;5.852;2023-02-04T06:24:20;20.27;;;4.18;;
76069;SDS011;64768;51.738;5.852;2023-02-04T06:27:06;19.13;;;3.65;;
76069;SDS011;64768;51.738;5.852;2023-02-04T06:29:36;19.40;;;4.90;;
76069;SDS011;64768;51.738;5.852;2023-02-04T06:32:08;19.77;;;4.85;;
76069;SDS011;64768;51.738;5.852;2023-02-04T06:34:40;20.08;;;5.75;;
76069;SDS011;64768;51.738;5.852;2023-02-04T06:37:10;20.80;;;4.97;;
76069;SDS011;64768;51.738;5.852;2023-02-04T06:39:43;27.30;;;5.53;;
76069;SDS011;64768;51.738;5.852;2023-02-04T06:42:20;19.65;;;4.72;;
76069;SDS011;64768;51.738;5.852;2023-02-04T06:44:52;32.10;;;5.55;;
76069;SDS011;64768;51.738;5.852;2023-02-04T06:47:33;18.88;;;5.03;;
76069;SDS011;64768;51.738;5.852;2023-02-04T06:50:02;21.55;;;5.47;;
76069;SDS011;64768;51.738;5.852;2023-02-04T06:52:32;23.40;;;5.88;;
76069;SDS011;64768;51.738;5.852;2023-02-04T06:55:02;24.05;;;5.30;;
76069;SDS011;64768;51.738;5.852;2023-02-04T06:57:34;21.10;;;5.30;;
76069;SDS011;64768;51.738;5.852;2023-02-04T07:00:09;18.25;;;4.25;;
76069;SDS011;64768;51.738;5.852;2023-02-04T07:02:41;24.38;;;5.45;;
76069;SDS011;64768;51.738;5.852;2023-02-04T07:05:14;15.73;;;5.00;;
76069;SDS011;64768;51.738;5.852;2023-02-04T07:07:45;19.45;;;5.00;;
76069;SDS011;64768;51.738;5.852;2023-02-04T07:10:15;21.05;;;5.72;;
76069;SDS011;64768;51.738;5.852;2023-02-04T07:12:50;21.90;;;5.47;;
76069;SDS011;64768;51.738;5.852;2023-02-04T07:15:22;26.90;;;6.68;;
76069;SDS011;64768;51.738;5.852;2023-02-04T07:17:54;23.48;;;5.45;;
76069;SDS011;64768;51.738;5.852;2023-02-04T07:20:23;17.10;;;3.90;;
76069;SDS011;64768;51.738;5.852;2023-02-04T07:22:54;14.15;;;4.43;;
76069;SDS011;64768;51.738;5.852;2023-02-04T07:25:28;14.73;;;4.70;;
76069;SDS011;64768;51.738;5.852;2023-02-04T07:28:03;30.70;;;5.82;;
76069;SDS011;64768;51.738;5.852;2023-02-04T07:30:33;15.90;;;4.88;;
76069;SDS011;64768;51.738;5.852;2023-02-04T07:33:05;15.20;;;4.82;;
76069;SDS011;64768;51.738;5.852;2023-02-04T07:35:34;16.05;;;3.75;;
76069;SDS011;64768;51.738;5.852;2023-02-04T07:38:05;7.15;;;2.20;;
76069;SDS011;64768;51.738;5.852;2023-02-04T07:40:37;10.93;;;3.13;;
76069;SDS011;64768;51.738;5.852;2023-02-04T07:43:09;19.92;;;4.85;;
76069;SDS011;64768;51.738;5.852;2023-02-04T07:45:41;18.70;;;5.78;;
76069;SDS011;64768;51.738;5.852;2023-02-04T07:48:13;25.90;;;5.65;;
76069;SDS011;64768;51.738;5.852;2023-02-04T07:50:43;26.45;;;6.30;;
76069;SDS011;64768;51.738;5.852;2023-02-04T07:53:13;19.75;;;5.65;;
76069;SDS011;64768;51.738;5.852;2023-02-04T07:55:57;21.60;;;5.30;;
76069;SDS011;64768;51.738;5.852;2023-02-04T07:58:42;24.77;;;6.05;;
76069;SDS011;64768;51.738;5.852;2023-02-04T08:01:11;22.52;;;6.32;;
76069;SDS011;64768;51.738;5.852;2023-02-04T08:03:41;29.50;;;6.57;;
76069;SDS011;64768;51.738;5.852;2023-02-04T08:06:12;13.20;;;5.35;;
76069;SDS011;64768;51.738;5.852;2023-02-04T08:08:46;26.30;;;6.63;;
76069;SDS011;64768;51.738;5.852;2023-02-04T08:11:17;34.53;;;7.18;;
76069;SDS011;64768;51.738;5.852;2023-02-04T08:13:53;24.75;;;6.13;;
76069;SDS011;64768;51.738;5.852;2023-02-04T08:16:24;26.75;;;6.97;;
76069;SDS011;64768;51.738;5.852;2023-02-04T08:18:58;21.52;;;6.60;;
76069;SDS011;64768;51.738;5.852;2023-02-04T08:21:29;24.08;;;5.72;;
76069;SDS011;64768;51.738;5.852;2023-02-04T08:23:58;21.80;;;6.45;;
76069;SDS011;64768;51.738;5.852;2023-02-04T08:26:27;21.17;;;5.00;;
76069;SDS011;64768;51.738;5.852;2023-02-04T08:29:00;15.05;;;4.35;;
76069;SDS011;64768;51.738;5.852;2023-02-04T08:31:34;8.65;;;3.10;;
76069;SDS011;64768;51.738;5.852;2023-02-04T08:34:04;25.73;;;6.38;;
76069;SDS011;64768;51.738;5.852;2023-02-04T08:36:36;21.80;;;6.18;;
76069;SDS011;64768;51.738;5.852;2023-02-04T08:39:06;13.45;;;5.13;;
76069;SDS011;64768;51.738;5.852;2023-02-04T08:41:37;26.50;;;6.88;;
76069;SDS011;64768;51.738;5.852;2023-02-04T08:44:12;28.55;;;8.63;;
76069;SDS011;64768;51.738;5.852;2023-02-04T08:46:43;30.17;;;8.95;;
76069;SDS011;64768;51.738;5.852;2023-02-04T08:49:12;30.30;;;7.82;;
76069;SDS011;64768;51.738;5.852;2023-02-04T08:51:43;27.95;;;7.07;;
76069;SDS011;64768;51.738;5.852;2023-02-04T08:54:16;24.80;;;8.70;;
76069;SDS011;64768;51.738;5.852;2023-02-04T08:56:46;30.65;;;7.82;;
76069;SDS011;64768;51.738;5.852;2023-02-04T08:59:18;29.95;;;8.27;;
76069;SDS011;64768;51.738;5.852;2023-02-04T09:01:48;27.23;;;8.75;;
76069;SDS011;64768;51.738;5.852;2023-02-04T09:04:21;24.45;;;7.78;;
76069;SDS011;64768;51.738;5.852;2023-02-04T09:06:54;25.70;;;7.07;;
76069;SDS011;64768;51.738;5.852;2023-02-04T09:09:24;27.05;;;7.35;;
76069;SDS011;64768;51.738;5.852;2023-02-04T09:11:54;37.47;;;10.02;;
76069;SDS011;64768;51.738;5.852;2023-02-04T09:14:30;29.27;;;8.15;;
76069;SDS011;64768;51.738;5.852;2023-02-04T09:17:00;24.30;;;8.40;;
76069;SDS011;64768;51.738;5.852;2023-02-04T09:19:30;26.60;;;7.82;;
76069;SDS011;64768;51.738;5.852;2023-02-04T09:21:59;30.15;;;8.15;;
76069;SDS011;64768;51.738;5.852;2023-02-04T09:24:30;32.60;;;9.82;;
76069;SDS011;64768;51.738;5.852;2023-02-04T09:26:58;27.63;;;9.00;;
76069;SDS011;64768;51.738;5.852;2023-02-04T09:29:31;30.65;;;9.02;;
76069;SDS011;64768;51.738;5.852;2023-02-04T09:32:00;27.45;;;7.60;;
76069;SDS011;64768;51.738;5.852;2023-02-04T09:34:31;23.48;;;6.82;;
76069;SDS011;64768;51.738;5.852;2023-02-04T09:37:00;24.90;;;6.30;;
76069;SDS011;64768;51.738;5.852;2023-02-04T09:39:29;31.80;;;8.48;;
76069;SDS011;64768;51.738;5.852;2023-02-04T09:41:58;24.67;;;6.55;;
76069;SDS011;64768;51.738;5.852;2023-02-04T09:44:30;24.75;;;7.07;;
76069;SDS011;64768;51.738;5.852;2023-02-04T09:46:59;19.58;;;6.32;;
76069;SDS011;64768;51.738;5.852;2023-02-04T09:49:31;12.18;;;4.75;;
76069;SDS011;64768;51.738;5.852;2023-02-04T09:52:00;22.95;;;7.15;;
76069;SDS011;64768;51.738;5.852;2023-02-04T09:54:32;11.27;;;3.83;;
76069;SDS011;64768;51.738;5.852;2023-02-04T09:57:06;26.63;;;6.60;;
76069;SDS011;64768;51.738;5.852;2023-02-04T09:59:45;23.83;;;7.35;;
76069;SDS011;64768;51.738;5.852;2023-02-04T10:02:19;27.33;;;6.72;;
76069;SDS011;64768;51.738;5.852;2023-02-04T10:04:50;24.63;;;7.72;;
76069;SDS011;64768;51.738;5.852;2023-02-04T10:07:22;24.10;;;7.45;;
76069;SDS011;64768;51.738;5.852;2023-02-04T10:09:56;27.60;;;8.02;;
76069;SDS011;64768;51.738;5.852;2023-02-04T10:12:26;28.60;;;8.20;;
76069;SDS011;64768;51.738;5.852;2023-02-04T10:14:59;21.38;;;7.20;;
76069;SDS011;64768;51.738;5.852;2023-02-04T10:17:32;28.15;;;7.32;;
76069;SDS011;64768;51.738;5.852;2023-02-04T10:20:01;32.10;;;10.40;;
76069;SDS011;64768;51.738;5.852;2023-02-04T10:22:38;23.10;;;7.15;;
76069;SDS011;64768;51.738;5.852;2023-02-04T10:25:11;26.63;;;8.70;;
76069;SDS011;64768;51.738;5.852;2023-02-04T10:27:48;26.40;;;7.65;;
76069;SDS011;64768;51.738;5.852;2023-02-04T10:30:22;21.30;;;6.07;;
76069;SDS011;64768;51.738;5.852;2023-02-04T10:32:52;27.15;;;8.20;;
76069;SDS011;64768;51.738;5.852;2023-02-04T10:35:22;24.67;;;7.43;;
76069;SDS011;64768;51.738;5.852;2023-02-04T10:38:01;26.98;;;7.30;;
76069;SDS011;64768;51.738;5.852;2023-02-04T10:40:32;21.23;;;5.85;;
76069;SDS011;64768;51.738;5.852;2023-02-04T10:43:06;20.63;;;6.53;;
76069;SDS011;64768;51.738;5.852;2023-02-04T10:45:43;22.25;;;7.25;;
76069;SDS011;64768;51.738;5.852;2023-02-04T10:48:14;30.58;;;6.75;;
76069;SDS011;64768;51.738;5.852;2023-02-04T10:50:44;22.90;;;5.90;;
76069;SDS011;64768;51.738;5.852;2023-02-04T10:53:18;22.98;;;6.18;;
76069;SDS011;64768;51.738;5.852;2023-02-04T10:56:01;33.78;;;7.90;;
76069;SDS011;64768;51.738;5.852;2023-02-04T10:58:30;31.50;;;7.10;;
76069;SDS011;64768;51.738;5.852;2023-02-04T11:01:07;28.55;;;7.82;;
76069;SDS011;64768;51.738;5.852;2023-02-04T11:03:38;24.77;;;6.25;;
76069;SDS011;64768;51.738;5.852;2023-02-04T11:06:24;31.60;;;7.60;;
76069;SDS011;64768;51.738;5.852;2023-02-04T11:08:53;29.15;;;5.97;;
76069;SDS011;64768;51.738;5.852;2023-02-04T11:11:23;18.33;;;4.82;;
76069;SDS011;64768;51.738;5.852;2023-02-04T11:13:57;26.10;;;5.88;;
76069;SDS011;64768;51.738;5.852;2023-02-04T11:16:31;20.40;;;4.85;;
76069;SDS011;64768;51.738;5.852;2023-02-04T11:19:01;29.02;;;6.20;;
76069;SDS011;64768;51.738;5.852;2023-02-04T11:21:41;27.98;;;6.80;;
76069;SDS011;64768;51.738;5.852;2023-02-04T11:24:22;21.80;;;5.53;;
76069;SDS011;64768;51.738;5.852;2023-02-04T11:27:04;26.75;;;5.88;;
76069;SDS011;64768;51.738;5.852;2023-02-04T11:29:35;22.75;;;5.47;;
76069;SDS011;64768;51.738;5.852;2023-02-04T11:32:25;23.27;;;4.68;;
76069;SDS011;64768;51.738;5.852;2023-02-04T11:35:06;35.42;;;5.47;;
76069;SDS011;64768;51.738;5.852;2023-02-04T11:38:02;20.65;;;3.72;;
76069;SDS011;64768;51.738;5.852;2023-02-04T11:40:46;16.83;;;3.95;;
76069;SDS011;64768;51.738;5.852;2023-02-04T11:43:51;19.30;;;5.32;;
76069;SDS011;64768;51.738;5.852;2023-02-04T11:47:17;24.33;;;4.80;;
76069;SDS011;64768;51.738;5.852;2023-02-04T11:50:16;15.32;;;3.78;;
76069;SDS011;64768;51.738;5.852;2023-02-04T11:52:55;20.67;;;5.68;;
76069;SDS011;64768;51.738;5.852;2023-02-04T11:56:05;17.05;;;4.50;;
76069;SDS011;64768;51.738;5.852;2023-02-04T12:01:49;16.40;;;3.88;;
76069;SDS011;64768;51.738;5.852;2023-02-04T12:05:07;24.95;;;5.38;;
76069;SDS011;64768;51.738;5.852;2023-02-04T12:13:00;9.15;;;1.92;;
76069;SDS011;64768;51.738;5.852;2023-02-04T12:15:15;17.95;;;3.78;;
76069;SDS011;64768;51.738;5.852;2023-02-04T12:18:11;17.17;;;3.78;;
76069;SDS011;64768;51.738;5.852;2023-02-04T12:21:07;6.18;;;1.80;;
76069;SDS011;64768;51.738;5.852;2023-02-04T12:24:05;15.82;;;4.07;;
76069;SDS011;64768;51.738;5.852;2023-02-04T12:27:12;23.13;;;4.10;;
76069;SDS011;64768;51.738;5.852;2023-02-04T12:30:21;14.38;;;2.42;;
76069;SDS011;64768;51.738;5.852;2023-02-04T12:36:48;18.60;;;4.20;;
76069;SDS011;64768;51.738;5.852;2023-02-04T12:39:26;14.32;;;3.55;;
76069;SDS011;64768;51.738;5.852;2023-02-04T12:45:35;25.88;;;3.95;;
76069;SDS011;64768;51.738;5.852;2023-02-04T12:47:54;3.03;;;1.02;;
76069;SDS011;64768;51.738;5.852;2023-02-04T12:54:25;6.47;;;2.33;;
76069;SDS011;64768;51.738;5.852;2023-02-04T12:57:26;10.13;;;2.38;;
76069;SDS011;64768;51.738;5.852;2023-02-04T13:00:22;21.80;;;2.22;;
76069;SDS011;64768;51.738;5.852;2023-02-04T13:03:20;11.55;;;2.03;;
76069;SDS011;64768;51.738;5.852;2023-02-04T13:06:04;7.50;;;1.80;;
76069;SDS011;64768;51.738;5.852;2023-02-04T13:11:42;13.93;;;2.42;;
76069;SDS011;64768;51.738;5.852;2023-02-04T13:14:19;16.20;;;3.35;;
76069;SDS011;64768;51.738;5.852;2023-02-04T13:17:02;12.95;;;2.78;;
76069;SDS011;64768;51.738;5.852;2023-02-04T13:19:35;11.73;;;2.42;;
76069;SDS011;64768;51.738;5.852;2023-02-04T13:22:21;14.20;;;3.10;;
76069;SDS011;64768;51.738;5.852;2023-02-04T13:25:03;10.90;;;2.53;;
76069;SDS011;64768;51.738;5.852;2023-02-04T13:30:46;9.02;;;1.88;;
76069;SDS011;64768;51.738;5.852;2023-02-04T13:33:25;8.70;;;2.22;;
76069;SDS011;64768;51.738;5.852;2023-02-04T13:36:10;17.58;;;2.38;;
76069;SDS011;64768;51.738;5.852;2023-02-04T13:38:52;9.40;;;1.98;;
76069;SDS011;64768;51.738;5.852;2023-02-04T13:41:33;12.68;;;2.55;;
76069;SDS011;64768;51.738;5.852;2023-02-04T13:44:06;16.27;;;3.05;;
76069;SDS011;64768;51.738;5.852;2023-02-04T13:46:40;15.70;;;3.72;;
76069;SDS011;64768;51.738;5.852;2023-02-04T13:49:25;18.00;;;3.45;;
76069;SDS011;64768;51.738;5.852;2023-02-04T13:51:59;18.45;;;3.80;;
76069;SDS011;64768;51.738;5.852;2023-02-04T13:54:28;14.23;;;2.78;;
76069;SDS011;64768;51.738;5.852;2023-02-04T13:57:00;13.68;;;2.30;;
76069;SDS011;64768;51.738;5.852;2023-02-04T13:59:44;11.73;;;3.25;;
76069;SDS011;64768;51.738;5.852;2023-02-04T14:02:17;12.00;;;2.03;;
76069;SDS011;64768;51.738;5.852;2023-02-04T14:04:52;14.05;;;2.85;;
76069;SDS011;64768;51.738;5.852;2023-02-04T14:07:30;12.00;;;2.30;;
76069;SDS011;64768;51.738;5.852;2023-02-04T14:10:02;4.70;;;1.23;;
76069;SDS011;64768;51.738;5.852;2023-02-04T14:12:47;14.93;;;3.03;;
76069;SDS011;64768;51.738;5.852;2023-02-04T14:21:42;17.88;;;2.47;;
76069;SDS011;64768;51.738;5.852;2023-02-04T14:24:25;17.40;;;3.03;;
76069;SDS011;64768;51.738;5.852;2023-02-04T14:26:54;18.02;;;3.25;;
76069;SDS011;64768;51.738;5.852;2023-02-04T14:29:23;11.63;;;2.17;;
76069;SDS011;64768;51.738;5.852;2023-02-04T14:32:11;11.73;;;1.83;;
76069;SDS011;64768;51.738;5.852;2023-02-04T14:34:50;15.50;;;2.17;;
76069;SDS011;64768;51.738;5.852;2023-02-04T14:37:47;16.02;;;3.00;;
76069;SDS011;64768;51.738;5.852;2023-02-04T14:40:23;9.43;;;2.70;;
76069;SDS011;64768;51.738;5.852;2023-02-04T14:42:54;16.27;;;2.80;;
76069;SDS011;64768;51.738;5.852;2023-02-04T14:45:25;13.88;;;3.28;;
76069;SDS011;64768;51.738;5.852;2023-02-04T14:50:31;13.60;;;2.53;;
76069;SDS011;64768;51.738;5.852;2023-02-04T14:53:01;16.42;;;3.15;;
76069;SDS011;64768;51.738;5.852;2023-02-04T14:55:44;14.52;;;2.55;;
76069;SDS011;64768;51.738;5.852;2023-02-04T14:58:13;13.13;;;2.50;;
76069;SDS011;64768;51.738;5.852;2023-02-04T15:00:42;23.80;;;3.30;;
76069;SDS011;64768;51.738;5.852;2023-02-04T15:03:11;21.58;;;2.75;;
76069;SDS011;64768;51.738;5.852;2023-02-04T15:05:43;13.77;;;3.33;;
76069;SDS011;64768;51.738;5.852;2023-02-04T15:08:11;18.38;;;3.08;;
76069;SDS011;64768;51.738;5.852;2023-02-04T15:10:42;17.98;;;3.97;;
76069;SDS011;64768;51.738;5.852;2023-02-04T15:13:11;20.42;;;2.97;;
76069;SDS011;64768;51.738;5.852;2023-02-04T15:15:40;15.57;;;2.97;;
76069;SDS011;64768;51.738;5.852;2023-02-04T15:18:09;15.55;;;3.25;;
76069;SDS011;64768;51.738;5.852;2023-02-04T15:20:44;23.50;;;3.00;;
76069;SDS011;64768;51.738;5.852;2023-02-04T15:23:12;15.38;;;3.03;;
76069;SDS011;64768;51.738;5.852;2023-02-04T15:25:42;11.80;;;2.97;;
76069;SDS011;64768;51.738;5.852;2023-02-04T15:28:11;11.07;;;2.75;;
76069;SDS011;64768;51.738;5.852;2023-02-04T15:30:40;28.05;;;4.10;;
76069;SDS011;64768;51.738;5.852;2023-02-04T15:33:09;17.70;;;2.88;;
76069;SDS011;64768;51.738;5.852;2023-02-04T15:35:40;13.52;;;3.15;;
76069;SDS011;64768;51.738;5.852;2023-02-04T15:38:12;15.25;;;3.72;;
76069;SDS011;64768;51.738;5.852;2023-02-04T15:40:40;19.42;;;3.67;;
76069;SDS011;64768;51.738;5.852;2023-02-04T15:43:09;17.60;;;3.38;;
76069;SDS011;64768;51.738;5.852;2023-02-04T15:45:38;14.93;;;2.70;;
76069;SDS011;64768;51.738;5.852;2023-02-04T15:48:08;18.27;;;2.80;;
76069;SDS011;64768;51.738;5.852;2023-02-04T15:50:37;12.10;;;2.85;;
76069;SDS011;64768;51.738;5.852;2023-02-04T15:53:10;14.98;;;3.05;;
76069;SDS011;64768;51.738;5.852;2023-02-04T15:55:38;19.42;;;3.60;;
76069;SDS011;64768;51.738;5.852;2023-02-04T15:58:10;17.52;;;4.22;;
76069;SDS011;64768;51.738;5.852;2023-02-04T16:00:39;13.13;;;2.55;;
76069;SDS011;64768;51.738;5.852;2023-02-04T16:03:08;21.92;;;3.28;;